createdAt,value
2023-01-29T00:01:49.157Z,7.20
2023-01-29T00:06:52.514Z,4.07
2023-01-29T00:11:55.926Z,3.08
2023-01-29T00:16:59.052Z,3.60
2023-01-29T00:22:01.897Z,4.43
2023-01-29T00:27:05.141Z,6.82
2023-01-29T00:32:08.141Z,6.95
2023-01-29T00:37:12.893Z,5.55
2023-01-29T00:42:34.221Z,4.38
2023-01-29T00:47:37.651Z,6.43
2023-01-29T00:52:43.801Z,5.40
2023-01-29T00:57:47.297Z,5.70
2023-01-29T01:03:09.087Z,4.43
2023-01-29T01:08:30.396Z,5.53
2023-01-29T01:13:35.220Z,7.25
2023-01-29T01:18:38.442Z,3.92
2023-01-29T01:23:41.647Z,5.20
2023-01-29T01:28:45.431Z,4.00
2023-01-29T01:33:48.414Z,4.28
2023-01-29T01:38:51.642Z,5.03
2023-01-29T01:43:58.044Z,6.95
2023-01-29T01:49:11.351Z,7.00
2023-01-29T01:54:32.274Z,4.78
2023-01-29T01:59:41.420Z,6.90
2023-01-29T02:05:06.906Z,7.18
2023-01-29T02:10:16.293Z,6.95
2023-01-29T02:15:19.869Z,6.32
2023-01-29T02:20:27.141Z,4.47
2023-01-29T02:25:58.813Z,3.78
2023-01-29T02:31:04.540Z,3.20
2023-01-29T02:36:33.168Z,3.83
2023-01-29T02:41:44.927Z,3.88
2023-01-29T02:47:15.480Z,3.90
2023-01-29T02:52:18.500Z,3.35
2023-01-29T02:57:23.667Z,6.03
2023-01-29T03:02:36.331Z,6.38
2023-01-29T03:07:46.688Z,7.13
2023-01-29T03:13:08.285Z,5.63
2023-01-29T03:18:17.417Z,3.47
2023-01-29T03:23:48.332Z,3.55
2023-01-29T03:29:10.456Z,4.18
2023-01-29T03:34:28.668Z,3.47
2023-01-29T03:39:31.948Z,7.78
2023-01-29T03:45:05.653Z,3.70
2023-01-29T03:50:18.631Z,3.30
2023-01-29T03:55:34.061Z,3.97
2023-01-29T04:00:41.519Z,3.70
2023-01-29T04:05:50.076Z,3.72
2023-01-29T04:11:03.973Z,3.67
2023-01-29T04:16:10.409Z,5.13
2023-01-29T04:21:32.152Z,5.20
2023-01-29T04:26:56.924Z,5.50
2023-01-29T04:32:11.911Z,4.70
2023-01-29T04:37:35.882Z,3.63
2023-01-29T04:43:23.151Z,4.45
2023-01-29T04:48:55.284Z,6.70
2023-01-29T04:54:12.742Z,6.40
2023-01-29T04:59:22.435Z,5.03
2023-01-29T05:04:28.051Z,3.90
2023-01-29T05:09:32.628Z,4.32
2023-01-29T05:14:37.844Z,5.18
2023-01-29T05:19:40.931Z,4.05
2023-01-29T05:24:44.854Z,4.40
2023-01-29T05:29:48.956Z,3.50
2023-01-29T05:34:52.001Z,5.38
2023-01-29T05:39:55.271Z,6.10
2023-01-29T05:44:58.327Z,9.13
2023-01-29T05:50:01.373Z,10.40
2023-01-29T05:55:06.916Z,10.43
2023-01-29T06:00:13.251Z,9.35
2023-01-29T06:05:16.086Z,9.02
2023-01-29T06:10:19.699Z,7.55
2023-01-29T06:15:23.175Z,4.32
2023-01-29T06:20:26.828Z,6.20
2023-01-29T06:25:29.890Z,5.97
2023-01-29T06:30:33.259Z,6.47
2023-01-29T06:35:36.669Z,4.50
2023-01-29T06:51:17.607Z,3.85
2023-01-29T06:56:21.025Z,4.05
2023-01-29T07:01:35.649Z,4.80
2023-01-29T07:06:39.477Z,4.32
2023-01-29T07:11:42.403Z,4.93
2023-01-29T07:16:45.421Z,3.97
2023-01-29T07:21:48.299Z,4.97
2023-01-29T07:26:51.299Z,4.30
2023-01-29T07:31:54.860Z,3.47
2023-01-29T07:36:58.044Z,4.20
2023-01-29T07:42:01.578Z,3.30
2023-01-29T07:47:04.710Z,3.22
2023-01-29T07:52:07.815Z,3.60
2023-01-29T07:57:10.907Z,3.83
2023-01-29T08:02:14.127Z,3.65
2023-01-29T08:07:17.212Z,4.78
2023-01-29T08:12:20.201Z,3.50
2023-01-29T08:17:23.072Z,3.85
2023-01-29T08:22:26.076Z,4.60
2023-01-29T08:27:29.361Z,4.25
2023-01-29T08:32:32.751Z,3.83
2023-01-29T08:37:36.721Z,3.47
2023-01-29T08:42:41.669Z,4.45
2023-01-29T08:47:49.357Z,3.85
2023-01-29T08:52:52.559Z,4.07
2023-01-29T08:57:57.628Z,4.40
2023-01-29T09:03:01.429Z,3.97
2023-01-29T09:08:06.245Z,4.13
2023-01-29T09:18:13.434Z,6.18
2023-01-29T09:23:16.473Z,6.57
2023-01-29T09:28:19.350Z,5.93
2023-01-29T09:33:25.062Z,6.32
2023-01-29T09:38:28.027Z,5.85
2023-01-29T09:43:47.572Z,6.13
2023-01-29T09:49:00.760Z,5.28
2023-01-29T09:54:30.057Z,4.93
2023-01-29T09:59:33.420Z,4.90
2023-01-29T10:04:39.196Z,5.60
2023-01-29T10:10:23.316Z,5.22
2023-01-29T10:16:08.868Z,5.32
2023-01-29T10:21:49.396Z,5.55
2023-01-29T10:26:54.347Z,5.05
2023-01-29T10:37:07.286Z,4.50
2023-01-29T10:43:06.895Z,5.60
2023-01-29T10:48:28.778Z,5.50
2023-01-29T10:53:47.234Z,5.22
2023-01-29T10:58:57.982Z,4.95
2023-01-29T11:04:05.370Z,5.28
2023-01-29T11:09:55.757Z,5.28
2023-01-29T11:15:19.055Z,5.72
2023-01-29T11:20:33.279Z,5.00
2023-01-29T11:25:37.083Z,5.60
2023-01-29T11:30:42.196Z,4.80
2023-01-29T11:35:45.228Z,5.60
2023-01-29T11:40:48.660Z,5.50
2023-01-29T11:45:56.630Z,5.55
2023-01-29T11:51:01.353Z,5.65
2023-01-29T11:56:13.918Z,5.30
2023-01-29T12:01:19.687Z,4.78
2023-01-29T12:06:35.786Z,5.47
2023-01-29T12:11:38.844Z,5.80
2023-01-29T12:16:59.131Z,5.60
2023-01-29T12:22:41.140Z,5.95
2023-01-29T12:28:09.535Z,5.18
2023-01-29T12:33:35.602Z,4.90
2023-01-29T12:38:38.628Z,5.55
2023-01-29T12:43:51.243Z,5.15
2023-01-29T12:48:58.001Z,5.13
2023-01-29T12:54:26.216Z,5.05
2023-01-29T13:00:09.603Z,4.90
2023-01-29T13:05:27.099Z,5.15
2023-01-29T13:10:41.507Z,5.30
2023-01-29T13:15:45.142Z,5.30
2023-01-29T13:20:50.359Z,5.45
2023-01-29T13:25:54.423Z,5.28
2023-01-29T13:31:23.294Z,5.60
2023-01-29T13:36:30.046Z,4.88
2023-01-29T13:41:42.941Z,5.75
2023-01-29T13:46:57.389Z,6.57
2023-01-29T13:52:16.447Z,5.30
2023-01-29T13:57:37.637Z,5.18
2023-01-29T14:02:40.834Z,5.95
2023-01-29T14:07:44.445Z,5.78
2023-01-29T14:12:52.318Z,5.68
2023-01-29T14:18:17.246Z,5.20
2023-01-29T14:23:28.935Z,5.05
2023-01-29T14:28:34.782Z,5.50
2023-01-29T14:33:43.430Z,5.25
2023-01-29T14:38:52.524Z,5.00
2023-01-29T14:44:38.355Z,5.40
2023-01-29T14:49:51.654Z,5.07
2023-01-29T14:54:59.840Z,5.07
2023-01-29T15:00:16.336Z,5.93
2023-01-29T15:05:22.114Z,6.78
2023-01-29T15:10:38.654Z,6.30
2023-01-29T15:15:52.345Z,5.45
2023-01-29T15:21:14.701Z,5.45
2023-01-29T15:26:25.934Z,5.88
2023-01-29T15:31:30.241Z,5.53
2023-01-29T15:36:33.559Z,5.32
2023-01-29T15:41:36.739Z,5.47
2023-01-29T15:46:42.208Z,5.47
2023-01-29T15:51:47.819Z,7.28
2023-01-29T15:56:53.309Z,8.52
2023-01-29T16:01:56.763Z,8.75
2023-01-29T16:07:02.166Z,10.02
2023-01-29T16:12:05.693Z,10.23
2023-01-29T16:17:24.713Z,9.18
2023-01-29T16:22:33.718Z,9.13
2023-01-29T16:27:36.896Z,9.35
2023-01-29T16:32:39.929Z,8.05
2023-01-29T16:37:48.004Z,9.10
2023-01-29T16:43:18.192Z,8.65
2023-01-29T16:48:31.996Z,8.75
2023-01-29T16:53:36.337Z,9.52
2023-01-29T16:58:39.553Z,9.70
2023-01-29T17:03:43.008Z,8.27
2023-01-29T17:08:46.377Z,9.57
2023-01-29T17:13:49.745Z,8.82
2023-01-29T17:18:53.025Z,9.27
2023-01-29T17:23:56.160Z,8.55
2023-01-29T17:28:59.382Z,8.63
2023-01-29T17:34:02.287Z,8.35
2023-01-29T17:39:16.976Z,7.57
2023-01-29T17:44:20.432Z,8.05
2023-01-29T17:49:25.308Z,8.70
2023-01-29T17:54:28.425Z,8.60
2023-01-29T17:59:33.935Z,8.20
2023-01-29T18:04:38.556Z,8.88
2023-01-29T18:09:43.491Z,10.32
2023-01-29T18:14:46.341Z,8.98
2023-01-29T18:19:49.873Z,9.18
2023-01-29T18:24:53.366Z,10.30
2023-01-29T18:29:56.278Z,9.40
2023-01-29T18:34:59.020Z,8.63
2023-01-29T18:40:01.883Z,8.85
2023-01-29T18:45:08.768Z,8.40
2023-01-29T18:50:12.263Z,8.63
2023-01-29T18:55:15.258Z,9.45
2023-01-29T19:00:18.757Z,9.30
2023-01-29T19:05:24.166Z,8.85
2023-01-29T19:10:27.094Z,9.27
2023-01-29T19:15:30.324Z,8.40
2023-01-29T19:20:33.117Z,8.25
2023-01-29T19:25:40.260Z,6.93
2023-01-29T19:30:43.438Z,7.20
2023-01-29T19:35:48.762Z,6.53
2023-01-29T19:45:59.227Z,6.78
2023-01-29T19:51:08.855Z,6.30
2023-01-29T19:56:15.511Z,6.65
2023-01-29T20:01:22.229Z,6.30
2023-01-29T20:06:28.114Z,6.35
2023-01-29T20:11:33.273Z,6.13
2023-01-29T20:16:37.242Z,5.57
2023-01-29T20:21:41.333Z,6.45
2023-01-29T20:26:44.691Z,5.90
2023-01-29T20:31:48.001Z,5.65
2023-01-29T20:36:51.160Z,6.78
2023-01-29T20:41:55.516Z,6.82
2023-01-29T20:47:01.866Z,6.47
2023-01-29T20:52:05.109Z,6.50
2023-01-29T20:57:09.649Z,6.15
2023-01-29T21:02:15.463Z,6.50
2023-01-29T21:07:24.863Z,6.40
2023-01-29T21:12:28.323Z,6.00
2023-01-29T21:17:31.191Z,6.30
2023-01-29T21:22:34.439Z,6.32
2023-01-29T21:27:38.166Z,6.20
2023-01-29T21:32:42.157Z,7.43
2023-01-29T21:37:45.052Z,6.55
2023-01-29T21:43:07.232Z,7.10
2023-01-29T21:48:12.235Z,5.78
2023-01-29T21:53:15.692Z,6.10
2023-01-29T21:58:20.930Z,6.90
2023-01-29T22:03:25.114Z,6.63
2023-01-29T22:08:34.254Z,7.13
2023-01-29T22:13:37.377Z,6.18
2023-01-29T22:18:40.783Z,6.35
2023-01-29T22:23:43.623Z,6.25
2023-01-29T22:28:59.086Z,7.22
2023-01-29T22:34:02.585Z,7.40
2023-01-29T22:39:08.081Z,7.45
2023-01-29T22:44:11.208Z,6.88
2023-01-29T22:49:14.201Z,7.75
2023-01-29T22:54:17.291Z,6.95
2023-01-29T22:59:21.863Z,6.82
2023-01-29T23:04:24.963Z,7.82
2023-01-29T23:09:28.175Z,7.15
2023-01-29T23:14:31.215Z,7.90
2023-01-29T23:19:34.204Z,7.38
2023-01-29T23:24:38.165Z,6.90
2023-01-29T23:29:44.838Z,7.43
2023-01-29T23:34:49.075Z,7.18
2023-01-29T23:39:52.699Z,7.32
2023-01-29T23:44:55.501Z,6.78
2023-01-29T23:49:58.728Z,7.13
2023-01-29T23:55:01.736Z,7.32
